createdAt,value
2018-07-20T00:00:09.379Z,67.00
2018-07-20T00:01:10.408Z,67.00
2018-07-20T00:02:18.300Z,67.38
2018-07-20T00:03:32.133Z,67.58
2018-07-20T00:05:42.487Z,67.77
2018-07-20T00:06:44.440Z,67.68
2018-07-20T00:07:50.590Z,67.96
2018-07-20T00:08:52.749Z,68.15
2018-07-20T00:10:01.868Z,67.96
2018-07-20T00:11:07.713Z,67.96
2018-07-20T00:12:12.431Z,67.38
2018-07-20T00:13:16.531Z,67.68
2018-07-20T00:14:21.359Z,68.15
2018-07-20T00:15:25.761Z,68.21
2018-07-20T00:16:36.214Z,68.02
2018-07-20T00:17:35.913Z,68.21
2018-07-20T00:20:50.729Z,69.18
2018-07-20T00:21:56.012Z,68.51
2018-07-20T00:23:05.647Z,68.89
2018-07-20T00:24:06.283Z,68.12
2018-07-20T00:25:18.763Z,68.70
2018-07-20T00:26:16.723Z,69.46
2018-07-20T00:28:45.716Z,69.37
2018-07-20T00:29:35.731Z,69.18
2018-07-20T00:30:52.487Z,69.66
2018-07-20T00:32:56.732Z,69.46
2018-07-20T00:33:57.526Z,69.66
2018-07-20T00:35:11.872Z,69.56
2018-07-20T00:36:11.056Z,69.46
2018-07-20T00:37:17.925Z,69.46
2018-07-20T00:38:18.443Z,69.08
2018-07-20T00:40:43.647Z,69.85
2018-07-20T00:41:44.780Z,69.27
2018-07-20T00:42:37.209Z,69.85
2018-07-20T00:43:55.342Z,69.85
2018-07-20T00:44:57.193Z,69.91
2018-07-20T00:45:52.180Z,69.95
2018-07-20T00:47:02.735Z,69.56
2018-07-20T00:49:27.838Z,70.14
2018-07-20T00:51:35.836Z,70.20
2018-07-20T00:53:41.176Z,70.49
2018-07-20T00:54:48.044Z,70.29
2018-07-20T00:55:50.100Z,70.01
2018-07-20T00:56:55.326Z,69.81
2018-07-20T00:58:02.821Z,70.29
2018-07-20T00:59:15.420Z,70.01
2018-07-20T01:00:15.521Z,70.39
2018-07-20T01:01:19.931Z,70.20
2018-07-20T01:02:25.364Z,70.20
2018-07-20T01:03:32.333Z,70.78
2018-07-20T01:04:32.036Z,70.29
2018-07-20T01:05:36.957Z,70.49
2018-07-20T01:06:49.354Z,70.39
2018-07-20T01:08:07.590Z,71.06
2018-07-20T01:08:58.482Z,71.35
2018-07-20T01:10:11.800Z,70.49
2018-07-20T01:11:12.524Z,70.39
2018-07-20T01:12:06.897Z,70.29
2018-07-20T01:13:15.303Z,71.06
2018-07-20T01:15:38.971Z,70.49
2018-07-20T01:17:48.302Z,70.87
2018-07-20T01:18:44.929Z,70.58
2018-07-20T01:20:00.398Z,70.39
2018-07-20T01:21:06.550Z,70.49
2018-07-20T01:22:01.640Z,70.49
2018-07-20T01:23:19.772Z,70.78
2018-07-20T01:24:21.418Z,71.16
2018-07-20T01:25:43.626Z,71.25
2018-07-20T01:26:19.382Z,71.35
2018-07-20T01:29:41.521Z,70.97
2018-07-20T01:30:59.350Z,71.35
2018-07-20T01:31:57.922Z,70.68
2018-07-20T01:34:10.327Z,70.97
2018-07-20T01:35:09.613Z,70.87
2018-07-20T01:36:36.861Z,70.93
2018-07-20T01:37:32.154Z,70.84
2018-07-20T01:38:39.638Z,71.03
2018-07-20T01:39:34.630Z,71.03
2018-07-20T01:40:45.904Z,71.12
2018-07-20T01:41:50.101Z,71.41
2018-07-20T01:43:05.981Z,71.70
2018-07-20T01:45:20.537Z,71.80
2018-07-20T01:46:01.905Z,71.70
2018-07-20T01:47:19.425Z,71.80
2018-07-20T01:48:17.894Z,71.61
2018-07-20T01:49:21.893Z,71.61
2018-07-20T01:50:18.216Z,71.80
2018-07-20T01:51:26.105Z,71.70
2018-07-20T01:52:53.659Z,71.51
2018-07-20T01:55:03.708Z,72.18
2018-07-20T01:56:05.150Z,72.56
2018-07-20T01:57:04.952Z,72.66
2018-07-20T01:58:10.079Z,72.66
2018-07-20T01:59:34.864Z,72.66
2018-07-20T02:00:28.729Z,72.47
2018-07-20T02:01:34.979Z,72.28
2018-07-20T02:02:40.723Z,72.66
2018-07-20T02:04:06.636Z,72.66
2018-07-20T02:04:49.444Z,72.37
2018-07-20T02:05:40.331Z,72.75
2018-07-20T02:08:05.947Z,73.24
2018-07-20T02:09:49.376Z,72.95
2018-07-20T02:10:44.974Z,73.04
2018-07-20T02:11:24.706Z,73.33
2018-07-20T02:12:41.507Z,73.04
2018-07-20T02:14:03.839Z,73.24
2018-07-20T02:14:46.947Z,73.24
2018-07-20T02:15:47.465Z,73.62
2018-07-20T02:17:04.368Z,73.62
2018-07-20T02:18:04.683Z,74.19
2018-07-20T02:20:22.618Z,73.72
2018-07-20T02:21:59.386Z,74.01
2018-07-20T02:22:40.755Z,73.72
2018-07-20T02:24:46.297Z,73.91
2018-07-20T02:26:07.914Z,74.10
2018-07-20T02:27:00.547Z,74.16
2018-07-20T02:28:12.226Z,74.10
2018-07-20T02:29:02.402Z,74.01
2018-07-20T02:30:08.563Z,74.10
2018-07-20T02:31:27.155Z,74.19
2018-07-20T02:32:30.791Z,74.58
2018-07-20T02:33:49.534Z,74.16
2018-07-20T02:34:40.631Z,74.19
2018-07-20T02:35:54.566Z,74.10
2018-07-20T02:36:52.834Z,73.58
2018-07-20T02:37:53.761Z,73.68
2018-07-20T02:39:06.363Z,73.68
2018-07-20T02:40:08.625Z,73.49
2018-07-20T02:40:58.908Z,73.58
2018-07-20T02:42:09.146Z,73.77
2018-07-20T02:43:10.794Z,73.58
2018-07-20T02:45:34.156Z,73.58
2018-07-20T02:47:39.183Z,72.91
2018-07-20T02:48:50.659Z,73.58
2018-07-20T02:49:37.361Z,74.06
2018-07-20T02:50:54.362Z,73.97
2018-07-20T02:51:57.343Z,74.26
2018-07-20T02:52:53.964Z,73.87
2018-07-20T02:54:12.401Z,74.06
2018-07-20T02:55:26.233Z,74.16
2018-07-20T02:59:48.173Z,74.26
2018-07-20T03:01:44.911Z,74.35
2018-07-20T03:04:00.181Z,74.44
2018-07-20T03:05:04.183Z,74.35
2018-07-20T03:06:03.684Z,74.83
2018-07-20T03:07:09.624Z,75.12
2018-07-20T03:08:17.207Z,75.02
2018-07-20T03:09:24.387Z,74.54
2018-07-20T03:10:30.535Z,74.73
2018-07-20T03:12:45.088Z,75.08
2018-07-20T03:13:47.247Z,74.60
2018-07-20T03:14:48.796Z,74.79
2018-07-20T03:15:58.215Z,75.18
2018-07-20T03:16:53.511Z,75.18
2018-07-20T03:18:17.480Z,75.95
2018-07-20T03:20:12.272Z,75.75
2018-07-20T03:21:19.652Z,75.75
2018-07-20T03:22:32.252Z,76.23
2018-07-20T03:24:40.458Z,75.95
2018-07-20T03:25:42.308Z,76.14
2018-07-20T03:26:45.285Z,76.14
2018-07-20T03:27:50.106Z,75.95
2018-07-20T03:29:04.041Z,75.75
2018-07-20T03:30:03.534Z,76.23
2018-07-20T03:31:20.642Z,76.62
2018-07-20T03:32:25.360Z,76.71
2018-07-20T03:33:25.877Z,76.81
2018-07-20T03:35:37.666Z,76.81
2018-07-20T03:36:40.642Z,76.90
2018-07-20T03:37:51.708Z,76.32
2018-07-20T03:38:45.267Z,76.32
2018-07-20T03:40:01.758Z,75.95
2018-07-20T03:41:00.946Z,75.37
2018-07-20T03:42:01.668Z,75.95
2018-07-20T03:43:08.843Z,75.65
2018-07-20T03:44:16.837Z,75.95
2018-07-20T03:45:22.477Z,75.85
2018-07-20T03:46:31.192Z,76.04
2018-07-20T03:47:39.900Z,75.75
2018-07-20T03:48:33.249Z,75.65
2018-07-20T03:49:45.544Z,76.04
2018-07-20T03:50:53.958Z,76.04
2018-07-20T03:51:54.670Z,75.75
2018-07-20T03:54:09.943Z,76.42
2018-07-20T03:56:13.439Z,76.48
2018-07-20T03:57:24.197Z,76.96
2018-07-20T03:58:31.882Z,76.86
2018-07-20T03:59:37.317Z,77.09
2018-07-20T04:00:47.052Z,77.53
2018-07-20T04:01:46.583Z,77.82
2018-07-20T04:02:48.601Z,77.15
2018-07-20T04:04:00.486Z,76.96
2018-07-20T04:06:14.733Z,77.76
2018-07-20T04:07:11.463Z,77.44
2018-07-20T04:08:34.818Z,77.58
2018-07-20T04:09:19.058Z,77.58
2018-07-20T04:10:31.760Z,77.92
2018-07-20T04:11:39.753Z,77.82
2018-07-20T04:12:42.939Z,78.15
2018-07-20T04:13:45.604Z,77.67
2018-07-20T04:16:05.483Z,77.58
2018-07-20T04:17:05.491Z,77.48
2018-07-20T04:18:24.030Z,77.86
2018-07-20T04:19:12.773Z,77.86
2018-07-20T04:20:20.061Z,77.67
2018-07-20T04:21:24.054Z,77.86
2018-07-20T04:22:28.973Z,77.95
2018-07-20T04:23:41.780Z,77.67
2018-07-20T04:24:39.535Z,77.58
2018-07-20T04:27:01.770Z,77.58
2018-07-20T04:28:01.879Z,77.86
2018-07-20T04:29:03.805Z,78.15
2018-07-20T04:30:00.052Z,78.25
2018-07-20T04:31:14.391Z,78.53
2018-07-20T04:33:25.668Z,77.95
2018-07-20T04:34:34.073Z,78.34
2018-07-20T04:35:39.097Z,77.95
2018-07-20T04:36:38.796Z,77.95
2018-07-20T04:37:53.446Z,78.25
2018-07-20T04:38:47.107Z,78.53
2018-07-20T04:40:07.798Z,78.25
2018-07-20T04:41:02.581Z,78.53
2018-07-20T04:42:08.017Z,78.44
2018-07-20T04:44:15.790Z,78.34
2018-07-20T04:46:38.556Z,78.05
2018-07-20T04:47:32.122Z,77.86
2018-07-20T04:48:44.812Z,78.25
2018-07-20T04:49:43.699Z,78.15
2018-07-20T04:50:46.878Z,78.86
2018-07-20T04:51:50.878Z,78.47
2018-07-20T04:53:07.167Z,78.09
2018-07-20T04:54:05.341Z,78.67
2018-07-20T04:55:22.951Z,78.28
2018-07-20T04:56:12.925Z,78.19
2018-07-20T04:57:31.872Z,77.80
2018-07-20T04:58:25.840Z,77.80
2018-07-20T04:59:36.496Z,77.90
2018-07-20T05:00:44.079Z,77.71
2018-07-20T05:02:54.949Z,77.71
2018-07-20T05:03:59.254Z,77.61
2018-07-20T05:05:06.123Z,77.71
2018-07-20T05:06:07.564Z,78.42
2018-07-20T05:07:10.846Z,78.57
2018-07-20T05:08:37.230Z,78.38
2018-07-20T05:09:25.818Z,78.99
2018-07-20T05:10:43.328Z,79.38
2018-07-20T05:11:43.540Z,79.47
2018-07-20T05:12:41.090Z,78.90
2018-07-20T05:17:18.081Z,78.23
2018-07-20T05:21:32.854Z,78.23
2018-07-20T05:22:39.821Z,78.13
2018-07-20T05:23:58.369Z,77.75
2018-07-20T05:26:02.681Z,77.75
2018-07-20T05:27:14.772Z,78.32
2018-07-20T05:28:08.023Z,78.45
2018-07-20T05:30:16.123Z,78.55
2018-07-20T05:31:38.784Z,78.23
2018-07-20T05:32:26.691Z,78.36
2018-07-20T05:33:36.691Z,78.08
2018-07-20T05:34:58.443Z,78.65
2018-07-20T05:35:58.245Z,78.17
2018-07-20T05:36:57.635Z,78.27
2018-07-20T05:38:33.383Z,78.55
2018-07-20T05:39:08.300Z,77.98
2018-07-20T05:40:07.488Z,78.08
2018-07-20T05:41:13.433Z,78.08
2018-07-20T05:43:18.975Z,78.08
2018-07-20T05:44:31.066Z,77.78
2018-07-20T05:45:30.663Z,77.50
2018-07-20T05:46:46.337Z,77.73
2018-07-20T05:47:48.700Z,78.02
2018-07-20T05:49:55.675Z,77.73
2018-07-20T05:51:15.246Z,77.63
2018-07-20T05:52:09.922Z,77.83
2018-07-20T05:54:14.135Z,76.96
2018-07-20T05:55:14.653Z,77.73
2018-07-20T05:56:33.833Z,77.73
2018-07-20T05:57:39.259Z,78.11
2018-07-20T05:58:44.255Z,78.02
2018-07-20T05:59:43.454Z,77.92
2018-07-20T06:00:45.833Z,77.83
2018-07-20T06:01:48.524Z,77.44
2018-07-20T06:03:13.785Z,77.19
2018-07-20T06:04:10.305Z,77.09
2018-07-20T06:06:13.807Z,77.86
2018-07-20T06:08:41.878Z,78.34
2018-07-20T06:09:32.975Z,77.96
2018-07-20T06:11:40.567Z,77.86
2018-07-20T06:12:52.042Z,76.90
2018-07-20T06:13:53.077Z,77.13
2018-07-20T06:15:09.262Z,75.84
2018-07-20T06:16:10.087Z,76.26
2018-07-20T06:17:22.073Z,75.98
2018-07-20T06:18:24.435Z,75.21
2018-07-20T06:20:31.990Z,75.11
2018-07-20T06:21:42.479Z,75.11
2018-07-20T06:22:41.153Z,74.44
2018-07-20T06:23:44.573Z,74.92
2018-07-20T06:24:46.389Z,75.21
2018-07-20T06:25:55.817Z,74.86
2018-07-20T06:27:10.877Z,74.76
2018-07-20T06:29:16.625Z,73.90
2018-07-20T06:30:18.065Z,73.80
2018-07-20T06:32:28.422Z,73.22
2018-07-20T06:33:36.723Z,72.74
2018-07-20T06:34:45.843Z,73.61
2018-07-20T06:35:43.802Z,73.22
2018-07-20T06:36:47.699Z,72.55
2018-07-20T06:38:10.543Z,73.13
2018-07-20T06:39:05.941Z,72.97
2018-07-20T06:40:14.754Z,72.68
2018-07-20T06:41:16.774Z,73.07
2018-07-20T06:42:29.312Z,73.55
2018-07-20T06:43:25.320Z,72.68
2018-07-20T06:44:25.847Z,71.81
2018-07-20T06:45:33.850Z,72.11
2018-07-20T06:46:39.574Z,71.72
2018-07-20T06:48:04.163Z,72.39
2018-07-20T06:48:52.901Z,71.53
2018-07-20T06:49:57.627Z,70.56
2018-07-20T06:51:10.119Z,70.41
2018-07-20T06:52:05.824Z,70.79
2018-07-20T06:53:10.337Z,70.21
2018-07-20T06:54:13.926Z,70.02
2018-07-20T06:56:34.323Z,69.15
2018-07-20T06:57:37.294Z,68.00
2018-07-20T06:58:42.319Z,67.65
2018-07-20T06:59:51.441Z,67.94
2018-07-20T07:00:56.472Z,67.36
2018-07-20T07:01:57.598Z,67.16
2018-07-20T07:04:09.489Z,65.05
2018-07-20T07:05:17.088Z,64.86
2018-07-20T07:06:23.224Z,64.86
2018-07-20T07:07:31.424Z,65.24
2018-07-20T07:08:34.504Z,64.18
2018-07-20T07:09:43.012Z,64.50
2018-07-20T07:10:47.417Z,63.70
2018-07-20T07:11:53.878Z,63.89
2018-07-20T07:14:13.756Z,63.73
2018-07-20T07:15:10.930Z,63.12
2018-07-20T07:16:08.036Z,63.34
2018-07-20T07:17:10.914Z,63.34
2018-07-20T07:18:22.490Z,63.15
2018-07-20T07:19:26.385Z,63.34
2018-07-20T07:20:33.050Z,62.66
2018-07-20T07:21:33.462Z,61.99
2018-07-20T07:22:58.355Z,61.61
2018-07-20T07:23:52.934Z,61.44
2018-07-20T07:24:51.409Z,60.10
2018-07-20T07:26:03.861Z,59.13
2018-07-20T07:27:14.460Z,58.75
2018-07-20T07:28:11.495Z,59.13
2018-07-20T07:29:15.516Z,59.03
2018-07-20T07:30:22.467Z,59.03
2018-07-20T07:31:39.677Z,58.17
2018-07-20T07:32:32.004Z,57.81
2018-07-20T07:34:48.916Z,57.62
2018-07-20T07:35:56.891Z,57.52
2018-07-20T07:37:08.997Z,57.52
2018-07-20T07:38:09.005Z,57.42
2018-07-20T07:39:04.709Z,57.06
2018-07-20T07:40:14.854Z,56.87
2018-07-20T07:41:29.403Z,57.35
2018-07-20T07:42:27.866Z,56.58
2018-07-20T07:43:40.877Z,55.81
2018-07-20T07:44:41.710Z,56.29
2018-07-20T07:45:38.031Z,56.00
2018-07-20T07:46:36.878Z,56.32
2018-07-20T07:47:56.885Z,55.83
2018-07-20T07:49:16.910Z,55.74
2018-07-20T07:50:21.074Z,56.03
2018-07-20T07:51:19.128Z,55.07
2018-07-20T07:52:36.440Z,55.07
2018-07-20T07:53:20.779Z,54.19
2018-07-20T07:54:21.094Z,53.81
2018-07-20T07:55:41.581Z,53.64
2018-07-20T07:57:54.293Z,53.16
2018-07-20T07:59:19.842Z,53.06
2018-07-20T08:01:29.947Z,52.29
2018-07-20T08:02:11.011Z,52.67
2018-07-20T08:03:48.290Z,52.70
2018-07-20T08:04:17.055Z,52.31
2018-07-20T08:05:16.152Z,52.12
2018-07-20T08:07:34.883Z,52.22
2018-07-20T08:08:57.874Z,52.12
2018-07-20T08:09:53.918Z,52.12
2018-07-20T08:10:53.459Z,52.22
2018-07-20T08:12:02.580Z,50.96
2018-07-20T08:13:08.874Z,51.08
2018-07-20T08:15:32.808Z,51.28
2018-07-20T08:16:12.223Z,51.56
2018-07-20T08:17:20.878Z,50.50
2018-07-20T08:18:32.930Z,50.50
2018-07-20T08:19:40.007Z,50.40
2018-07-20T08:20:42.160Z,50.79
2018-07-20T08:21:32.881Z,50.60
2018-07-20T08:22:44.343Z,50.40
2018-07-20T08:23:50.879Z,50.60
2018-07-20T08:24:56.319Z,50.79
2018-07-20T08:25:57.451Z,49.34
2018-07-20T08:27:07.390Z,48.79
2018-07-20T08:28:05.992Z,48.69
2018-07-20T08:29:20.767Z,48.88
2018-07-20T08:31:38.348Z,49.37
2018-07-20T08:32:24.937Z,48.59
2018-07-20T08:34:48.092Z,48.01
2018-07-20T08:35:58.756Z,47.62
2018-07-20T08:37:55.883Z,48.01
2018-07-20T08:39:06.836Z,48.13
2018-07-20T08:40:11.885Z,47.91
2018-07-20T08:41:22.334Z,47.74
2018-07-20T08:43:38.424Z,48.03
2018-07-20T08:44:28.601Z,48.81
2018-07-20T08:45:41.920Z,48.81
2018-07-20T08:46:40.456Z,48.81
2018-07-20T08:47:51.867Z,48.15
2018-07-20T08:48:56.383Z,46.80
2018-07-20T08:49:59.663Z,47.96
2018-07-20T08:52:13.909Z,46.60
2018-07-20T08:54:34.924Z,45.73
2018-07-20T08:56:30.223Z,46.70
2018-07-20T08:57:43.438Z,46.82
2018-07-20T08:59:12.422Z,46.92
2018-07-20T09:00:04.928Z,47.02
2018-07-20T09:01:07.622Z,46.62
2018-07-20T09:03:12.242Z,46.53
2018-07-20T09:04:18.396Z,46.53
2018-07-20T09:05:33.559Z,46.33
2018-07-20T09:06:25.952Z,46.04
2018-07-20T09:07:32.444Z,45.56
2018-07-20T09:08:45.149Z,45.85
2018-07-20T09:09:42.801Z,46.45
2018-07-20T09:10:42.909Z,46.24
2018-07-20T09:12:00.430Z,46.55
2018-07-20T09:13:59.793Z,46.84
2018-07-20T09:15:08.541Z,48.10
2018-07-20T09:16:15.405Z,45.87
2018-07-20T09:17:17.869Z,45.58
2018-07-20T09:19:29.665Z,45.39
2018-07-20T09:21:42.064Z,44.61
2018-07-20T09:22:49.034Z,45.48
2018-07-20T09:23:50.780Z,45.89
2018-07-20T09:25:00.004Z,45.89
2018-07-20T09:25:59.295Z,45.51
2018-07-20T09:27:15.479Z,45.31
2018-07-20T09:28:20.875Z,44.54
2018-07-20T09:29:17.247Z,44.73
2018-07-20T09:31:27.386Z,44.64
2018-07-20T09:32:32.004Z,44.34
2018-07-20T09:33:36.106Z,44.15
2018-07-20T09:34:47.069Z,44.44
2018-07-20T09:35:51.578Z,45.02
2018-07-20T09:38:16.067Z,44.83
2018-07-20T09:39:01.942Z,44.95
2018-07-20T09:42:23.160Z,44.17
2018-07-20T09:43:23.576Z,44.37
2018-07-20T09:44:40.273Z,43.59
2018-07-20T09:45:43.567Z,44.38
2018-07-20T09:46:44.793Z,43.68
2018-07-20T09:47:47.905Z,43.51
2018-07-20T09:48:55.983Z,43.12
2018-07-20T09:50:18.618Z,44.48
2018-07-20T09:51:30.492Z,43.61
2018-07-20T09:52:26.907Z,43.51
2018-07-20T09:53:28.664Z,41.96
2018-07-20T09:54:22.628Z,42.05
2018-07-20T09:55:28.163Z,43.12
2018-07-20T09:56:38.511Z,43.02
2018-07-20T09:57:44.768Z,43.02
2018-07-20T09:59:09.909Z,42.95
2018-07-20T10:00:00.243Z,42.85
2018-07-20T10:01:16.884Z,43.44
2018-07-20T10:02:03.942Z,44.41
2018-07-20T10:03:14.094Z,43.24
2018-07-20T10:04:26.892Z,43.55
2018-07-20T10:05:22.267Z,42.85
2018-07-20T10:06:43.702Z,42.85
2018-07-20T10:07:33.578Z,42.68
2018-07-20T10:08:37.262Z,42.78
2018-07-20T10:09:41.879Z,42.00
2018-07-20T10:10:50.596Z,42.49
2018-07-20T10:11:56.127Z,42.87
2018-07-20T10:14:11.602Z,42.90
2018-07-20T10:15:12.939Z,41.53
2018-07-20T10:18:25.044Z,42.21
2018-07-20T10:19:33.241Z,41.63
2018-07-20T10:20:34.479Z,41.24
2018-07-20T10:21:53.428Z,41.63
2018-07-20T10:22:52.205Z,41.83
2018-07-20T10:24:01.532Z,41.46
2018-07-20T10:24:59.593Z,42.63
2018-07-20T10:28:16.304Z,40.00
2018-07-20T10:29:25.016Z,40.09
2018-07-20T10:30:33.528Z,40.11
2018-07-20T10:31:41.618Z,40.89
2018-07-20T10:32:38.562Z,42.65
2018-07-20T10:34:59.049Z,42.55
2018-07-20T10:35:54.343Z,41.99
2018-07-20T10:38:09.614Z,40.62
2018-07-20T10:39:26.312Z,40.23
2018-07-20T10:40:27.958Z,39.55
2018-07-20T10:42:35.925Z,38.57
2018-07-20T10:43:35.145Z,39.26
2018-07-20T10:44:48.874Z,38.96
2018-07-20T10:46:56.292Z,39.16
2018-07-20T10:48:06.712Z,39.26
2018-07-20T10:49:07.947Z,39.36
2018-07-20T10:50:12.153Z,40.33
2018-07-20T10:51:21.443Z,40.23
2018-07-20T10:52:19.927Z,39.57
2018-07-20T10:53:31.014Z,39.08
2018-07-20T10:54:20.986Z,39.18
2018-07-20T10:55:39.920Z,38.01
2018-07-20T10:56:40.968Z,38.10
2018-07-20T10:58:52.453Z,38.10
2018-07-20T10:59:54.713Z,38.42
2018-07-20T11:01:00.246Z,37.93
2018-07-20T11:02:16.537Z,38.12
2018-07-20T11:03:22.072Z,37.54
2018-07-20T11:05:28.742Z,37.83
2018-07-20T11:06:32.340Z,38.51
2018-07-20T11:07:40.329Z,37.93
2018-07-20T11:08:46.683Z,37.65
2018-07-20T11:09:45.931Z,37.85
2018-07-20T11:10:58.061Z,37.46
2018-07-20T11:12:13.325Z,37.27
2018-07-20T11:13:08.519Z,36.98
2018-07-20T11:14:10.208Z,36.98
2018-07-20T11:15:11.299Z,36.58
2018-07-20T11:16:22.876Z,36.78
2018-07-20T11:17:34.054Z,36.68
2018-07-20T11:19:39.691Z,36.41
2018-07-20T11:20:50.859Z,37.09
2018-07-20T11:21:53.813Z,38.55
2018-07-20T11:22:59.679Z,40.11
2018-07-20T11:23:58.969Z,39.82
2018-07-20T11:25:02.700Z,37.96
2018-07-20T11:27:12.507Z,36.90
2018-07-20T11:28:21.327Z,36.41
2018-07-20T11:29:29.938Z,36.58
2018-07-20T11:30:33.621Z,36.98
2018-07-20T11:31:39.158Z,36.98
2018-07-20T11:32:45.514Z,36.98
2018-07-20T11:33:48.797Z,37.75
2018-07-20T11:35:08.875Z,37.96
2018-07-20T11:36:02.430Z,36.90
2018-07-20T11:38:13.298Z,36.70
2018-07-20T11:41:42.400Z,38.09
2018-07-20T11:42:37.814Z,36.54
2018-07-20T11:43:48.867Z,36.05
2018-07-20T11:44:49.293Z,36.05
2018-07-20T11:45:45.094Z,35.95
2018-07-20T11:47:03.544Z,36.33
2018-07-20T11:48:09.943Z,36.91
2018-07-20T11:49:06.205Z,36.82
2018-07-20T11:50:35.601Z,36.54
2018-07-20T11:52:31.841Z,36.73
2018-07-20T11:53:44.735Z,36.63
2018-07-20T11:54:44.980Z,36.23
2018-07-20T11:55:51.311Z,36.33
2018-07-20T11:56:45.475Z,36.60
2018-07-20T11:57:59.302Z,36.80
2018-07-20T11:59:02.948Z,36.90
2018-07-20T11:59:58.199Z,37.38
2018-07-20T12:01:10.486Z,37.70
2018-07-20T12:02:17.050Z,36.91
2018-07-20T12:04:19.112Z,35.45
2018-07-20T12:05:46.969Z,36.62
2018-07-20T12:07:42.463Z,36.91
2018-07-20T12:08:52.833Z,36.63
2018-07-20T12:09:55.702Z,37.91
2018-07-20T12:11:00.826Z,37.52
2018-07-20T12:14:20.713Z,34.78
2018-07-20T12:15:18.465Z,34.97
2018-07-20T12:16:32.502Z,35.75
2018-07-20T12:17:32.975Z,35.64
2018-07-20T12:18:52.389Z,35.94
2018-07-20T12:19:40.961Z,35.94
2018-07-20T12:20:49.424Z,35.74
2018-07-20T12:21:57.214Z,35.64
2018-07-20T12:23:09.408Z,35.84
2018-07-20T12:24:20.996Z,36.33
2018-07-20T12:25:06.245Z,36.43
2018-07-20T12:26:16.980Z,37.01
2018-07-20T12:27:20.288Z,37.01
2018-07-20T12:28:36.958Z,36.93
2018-07-20T12:30:45.767Z,36.83
2018-07-20T12:32:51.349Z,36.65
2018-07-20T12:33:57.517Z,36.65
2018-07-20T12:35:03.857Z,36.75
2018-07-20T12:36:07.754Z,36.85
2018-07-20T12:37:17.776Z,35.77
2018-07-20T12:38:28.455Z,36.85
2018-07-20T12:40:28.270Z,35.58
2018-07-20T12:41:39.758Z,36.46
2018-07-20T12:42:41.094Z,37.43
2018-07-20T12:43:42.663Z,36.65
2018-07-20T12:44:56.756Z,36.65
2018-07-20T12:45:54.305Z,36.55
2018-07-20T12:47:10.700Z,35.48
2018-07-20T12:48:21.149Z,35.58
2018-07-20T12:49:14.403Z,37.12
2018-07-20T12:50:19.535Z,37.02
2018-07-20T12:52:27.524Z,35.77
2018-07-20T12:53:39.409Z,35.87
2018-07-20T12:54:41.671Z,35.77
2018-07-20T12:55:48.128Z,36.46
2018-07-20T12:56:51.310Z,36.94
2018-07-20T12:58:03.913Z,36.55
2018-07-20T12:59:10.574Z,37.63
2018-07-20T13:00:03.208Z,38.02
2018-07-20T13:02:22.969Z,37.45
2018-07-20T13:04:32.829Z,36.98
2018-07-20T13:05:31.710Z,36.88
2018-07-20T13:06:42.980Z,36.88
2018-07-20T13:07:51.488Z,35.32
2018-07-20T13:08:52.969Z,35.13
2018-07-20T13:09:52.728Z,35.42
2018-07-20T13:11:01.236Z,34.74
2018-07-20T13:12:10.168Z,34.54
2018-07-20T13:13:17.324Z,35.24
2018-07-20T13:14:15.898Z,36.51
2018-07-20T13:16:33.424Z,34.16
2018-07-20T13:17:35.172Z,35.63
2018-07-20T13:18:34.869Z,35.93
2018-07-20T13:20:48.502Z,35.93
2018-07-20T13:21:55.165Z,35.14
2018-07-20T13:23:03.773Z,34.65
2018-07-20T13:24:06.276Z,34.96
2018-07-20T13:25:20.278Z,34.47
2018-07-20T13:26:20.180Z,33.98
2018-07-20T13:27:31.039Z,33.89
2018-07-20T13:28:36.473Z,35.25
2018-07-20T13:29:38.937Z,35.75
2018-07-20T13:30:44.983Z,35.85
2018-07-20T13:31:49.294Z,35.55
2018-07-20T13:33:01.517Z,34.77
2018-07-20T13:33:59.548Z,35.25
2018-07-20T13:35:02.320Z,34.18
2018-07-20T13:36:10.978Z,33.98
2018-07-20T13:37:18.409Z,34.86
2018-07-20T13:38:17.979Z,36.53
2018-07-20T13:40:35.736Z,35.55
2018-07-20T13:41:40.350Z,35.85
2018-07-20T13:42:47.529Z,36.02
2018-07-20T13:43:50.103Z,34.26
2018-07-20T13:44:53.582Z,33.97
2018-07-20T13:46:00.859Z,35.34
2018-07-20T13:47:13.870Z,36.41
2018-07-20T13:48:20.635Z,36.79
2018-07-20T13:49:16.239Z,35.13
2018-07-20T13:51:33.764Z,33.56
2018-07-20T13:52:30.400Z,33.36
2018-07-20T13:53:40.228Z,33.75
2018-07-20T13:54:47.813Z,33.95
2018-07-20T13:55:53.356Z,33.95
2018-07-20T13:58:02.579Z,34.13
2018-07-20T14:02:22.175Z,34.33
2018-07-20T14:03:28.212Z,34.03
2018-07-20T14:04:44.399Z,34.23
2018-07-20T14:05:41.343Z,34.13
2018-07-20T14:06:48.314Z,33.84
2018-07-20T14:07:50.878Z,34.03
2018-07-20T14:08:57.330Z,33.72
2018-07-20T14:10:03.550Z,34.01
2018-07-20T14:11:12.192Z,34.31
2018-07-20T14:12:23.770Z,35.01
2018-07-20T14:13:22.989Z,34.41
2018-07-20T14:14:31.471Z,35.19
2018-07-20T14:15:37.613Z,34.62
2018-07-20T14:16:38.545Z,33.92
2018-07-20T14:17:40.085Z,34.23
2018-07-20T14:18:50.946Z,34.72
2018-07-20T14:19:57.618Z,35.89
2018-07-20T14:21:01.712Z,37.55
2018-07-20T14:22:07.807Z,36.47
2018-07-20T14:23:06.230Z,34.23
2018-07-20T14:24:16.280Z,33.05
2018-07-20T14:25:15.463Z,35.11
2018-07-20T14:26:30.630Z,34.42
2018-07-20T14:27:32.270Z,34.81
2018-07-20T14:28:32.666Z,32.95
2018-07-20T14:30:46.829Z,32.46
2018-07-20T14:31:54.767Z,33.74
2018-07-20T14:33:02.834Z,33.94
2018-07-20T14:34:06.218Z,33.65
2018-07-20T14:35:12.560Z,34.23
2018-07-20T14:36:09.498Z,34.23
2018-07-20T14:37:19.229Z,33.95
2018-07-20T14:39:32.556Z,34.54
2018-07-20T14:42:48.252Z,33.75
2018-07-20T14:43:49.887Z,33.74
2018-07-20T14:46:03.732Z,32.07
2018-07-20T14:47:11.207Z,32.66
2018-07-20T14:48:25.959Z,33.05
2018-07-20T14:49:28.424Z,32.95
2018-07-20T14:50:27.309Z,33.82
2018-07-20T14:51:42.160Z,35.40
2018-07-20T14:52:46.879Z,34.89
2018-07-20T14:54:50.096Z,33.33
2018-07-20T14:57:04.210Z,34.11
2018-07-20T14:58:16.097Z,34.21
2018-07-20T14:59:10.690Z,33.72
2018-07-20T15:00:23.072Z,32.84
2018-07-20T15:04:44.812Z,32.92
2018-07-20T15:05:51.598Z,34.29
2018-07-20T15:06:48.661Z,34.39
2018-07-20T15:08:05.624Z,35.27
2018-07-20T15:08:58.659Z,35.46
2018-07-20T15:10:12.493Z,36.05
2018-07-20T15:11:30.626Z,36.73
2018-07-20T15:12:19.990Z,35.84
2018-07-20T15:13:27.258Z,35.95
2018-07-20T15:15:44.985Z,36.43
2018-07-20T15:16:35.674Z,35.84
2018-07-20T15:17:51.356Z,35.64
2018-07-20T15:18:55.712Z,35.94
2018-07-20T15:20:02.219Z,36.70
2018-07-20T15:21:04.475Z,36.70
2018-07-20T15:22:07.761Z,35.92
2018-07-20T15:24:17.193Z,38.55
2018-07-20T15:25:18.327Z,37.19
2018-07-20T15:26:26.627Z,36.90
2018-07-20T15:28:41.492Z,36.90
2018-07-20T15:29:43.238Z,38.35
2018-07-20T15:33:12.016Z,38.06
2018-07-20T15:34:03.746Z,36.60
2018-07-20T15:36:14.409Z,35.82
2018-07-20T15:37:39.694Z,37.09
2018-07-20T15:38:22.519Z,37.09
2018-07-20T15:39:32.048Z,36.60
2018-07-20T15:41:47.927Z,37.46
2018-07-20T15:44:01.668Z,35.82
2018-07-20T15:44:57.581Z,36.00
2018-07-20T15:46:05.700Z,36.51
2018-07-20T15:47:29.703Z,37.77
2018-07-20T15:48:20.430Z,37.95
2018-07-20T15:49:24.736Z,37.48
2018-07-20T15:50:26.791Z,36.58
2018-07-20T15:53:34.770Z,36.41
2018-07-20T15:53:42.400Z,36.49
2018-07-20T15:54:43.715Z,36.58
2018-07-20T15:55:56.019Z,38.14
2018-07-20T15:58:14.983Z,34.73
2018-07-20T15:59:18.251Z,35.80
2018-07-20T16:00:18.360Z,36.78
2018-07-20T16:01:26.764Z,36.19
2018-07-20T16:02:32.302Z,36.00
2018-07-20T16:03:31.796Z,35.80
2018-07-20T16:04:44.099Z,35.80
2018-07-20T16:05:48.042Z,36.49
2018-07-20T16:07:54.554Z,34.36
2018-07-20T16:09:02.046Z,35.33
2018-07-20T16:10:00.406Z,35.74
2018-07-20T16:11:10.770Z,35.74
2018-07-20T16:14:31.163Z,37.60
2018-07-20T16:15:29.829Z,35.75
2018-07-20T16:16:39.773Z,34.48
2018-07-20T16:17:57.799Z,34.08
2018-07-20T16:18:51.363Z,35.64
2018-07-20T16:21:27.626Z,33.50
2018-07-20T16:22:19.947Z,34.06
2018-07-20T16:23:13.500Z,33.77
2018-07-20T16:25:23.961Z,34.16
2018-07-20T16:26:32.464Z,35.12
2018-07-20T16:28:47.839Z,35.80
2018-07-20T16:30:02.593Z,35.90
2018-07-20T16:31:09.048Z,35.80
2018-07-20T16:32:23.291Z,35.41
2018-07-20T16:37:22.913Z,36.39
2018-07-20T16:38:34.593Z,35.80
2018-07-20T16:39:41.774Z,35.90
2018-07-20T16:40:44.951Z,34.45